Time;durP1;ratioP1;P1;durP2;ratioP2;P2;SDS_P1;SDS_P2;PMS_P1;PMS_P2;Temp;Humidity;BMP_temperature;BMP_pressure;BME280_temperature;BME280_humidity;BME280_pressure;Samples;Min_cycle;Max_cycle;Signal;HPM_P1;HPM_P2
2022/04/14 00:01:49;;;;;;;23.38;14.73;;;;;;;9.27;100.00;101919.75;5053429;28;20070;-71
2022/04/14 00:04:15;;;;;;;25.67;15.45;;;;;;;9.24;100.00;101918.03;5018681;28;20483;-71
2022/04/14 00:06:40;;;;;;;28.85;15.20;;;;;;;9.23;100.00;101915.44;5053642;28;20044;-71
2022/04/14 00:09:06;;;;;;;25.23;15.38;;;;;;;9.19;100.00;101905.81;5035423;28;20035;-71
2022/04/14 00:11:31;;;;;;;26.88;14.88;;;;;;;9.15;100.00;101909.47;5035491;28;20053;-71
2022/04/14 00:13:57;;;;;;;24.40;14.90;;;;;;;9.10;100.00;101907.78;5034095;28;20509;-71
2022/04/14 00:16:22;;;;;;;23.27;14.77;;;;;;;9.05;100.00;101917.56;5019097;28;20028;-71
2022/04/14 00:18:48;;;;;;;25.55;15.52;;;;;;;9.00;100.00;101921.22;5038800;28;20038;-71
2022/04/14 00:21:14;;;;;;;28.73;15.90;;;;;;;8.96;100.00;101920.41;5057202;28;20039;-71
2022/04/14 00:23:39;;;;;;;26.67;15.85;;;;;;;8.94;100.00;101919.59;5056999;28;20101;-71
2022/04/14 00:26:05;;;;;;;27.27;16.13;;;;;;;8.92;100.00;101930.19;5057180;28;20044;-71
2022/04/14 00:28:31;;;;;;;26.33;15.38;;;;;;;8.91;100.00;101927.56;5056658;28;20755;-71
2022/04/14 00:30:58;;;;;;;35.55;17.48;;;;;;;8.88;100.00;101932.94;5057142;28;20134;-71
2022/04/14 00:33:24;;;;;;;26.45;15.77;;;;;;;8.86;100.00;101926.78;5056943;28;20403;-71
2022/04/14 00:35:49;;;;;;;29.08;16.05;;;;;;;8.82;100.00;101924.22;5057225;28;20029;-71
2022/04/14 00:38:15;;;;;;;26.63;16.60;;;;;;;8.79;100.00;101934.88;5038012;28;20475;-71
2022/04/14 00:40:40;;;;;;;26.42;16.30;;;;;;;8.77;100.00;101925.22;5056618;28;20032;-71
2022/04/14 00:43:06;;;;;;;24.23;15.40;;;;;;;8.74;100.00;101933.19;5039107;28;20039;-71
2022/04/14 00:45:31;;;;;;;28.90;16.77;;;;;;;8.72;100.00;101937.66;5056538;28;20047;-71
2022/04/14 00:47:57;;;;;;;26.90;15.68;;;;;;;8.68;100.00;101931.56;5029067;28;20521;-72
2022/04/14 00:50:22;;;;;;;28.02;16.45;;;;;;;8.66;100.00;101933.38;5033019;28;20529;-71
2022/04/14 00:52:48;;;;;;;28.25;16.23;;;;;;;8.63;100.00;101923.75;5055892;28;20028;-71
2022/04/14 00:55:14;;;;;;;26.40;15.63;;;;;;;8.59;100.00;101932.59;5037778;28;20036;-71
2022/04/14 00:57:42;;;;;;;27.17;16.02;;;;;;;8.58;100.00;101935.25;5038603;28;20060;-71
2022/04/14 01:00:08;;;;;;;27.73;16.02;;;;;;;8.55;100.00;101933.56;5038392;28;20040;-71
2022/04/14 01:02:34;;;;;;;28.63;15.35;;;;;;;8.51;100.00;101938.03;5056207;28;20051;-71
2022/04/14 01:05:00;;;;;;;25.75;16.13;;;;;;;8.49;100.00;101939.78;5056304;28;20064;-71
2022/04/14 01:07:26;;;;;;;29.63;16.92;;;;;;;8.48;100.00;101938.06;5036647;28;20032;-71
2022/04/14 01:09:53;;;;;;;26.48;15.95;;;;;;;8.46;100.00;101939.00;5022355;28;20047;-71
2022/04/14 01:12:19;;;;;;;27.55;15.57;;;;;;;8.40;100.00;101939.97;5037762;28;20033;-71
2022/04/14 01:14:45;;;;;;;27.10;15.25;;;;;;;8.37;100.00;101937.38;5012214;28;20032;-71
2022/04/14 01:17:10;;;;;;;27.23;15.63;;;;;;;8.33;100.00;101936.56;5054296;28;20078;-71
2022/04/14 01:19:37;;;;;;;23.60;15.00;;;;;;;8.29;100.00;101935.75;5055573;28;20043;-71
2022/04/14 01:22:16;;;;;;;27.33;15.95;;;;;;;8.26;100.00;101941.09;5021258;28;20031;-71
2022/04/14 01:24:42;;;;;;;29.70;16.48;;;;;;;8.26;100.00;101946.38;5056185;28;20751;-71
2022/04/14 01:27:08;;;;;;;26.92;16.50;;;;;;;8.23;100.00;101946.41;5055165;28;20040;-71
2022/04/14 01:29:34;;;;;;;30.08;16.98;;;;;;;8.22;100.00;101949.97;5054592;28;20044;-70
2022/04/14 01:32:01;;;;;;;32.72;17.45;;;;;;;8.19;100.00;101947.41;5055756;28;20622;-71
2022/04/14 01:34:29;;;;;;;27.10;15.75;;;;;;;8.18;100.00;101947.41;5055112;28;20334;-71
2022/04/14 01:37:00;;;;;;;26.55;15.45;;;;;;;8.16;100.00;101950.06;5035502;28;21329;-71
2022/04/14 01:39:26;;;;;;;29.77;15.70;;;;;;;8.14;100.00;101952.75;5021214;28;20066;-71
2022/04/14 01:41:51;;;;;;;27.02;15.43;;;;;;;8.11;100.00;101951.91;5037144;28;20036;-71
2022/04/14 01:44:17;;;;;;;25.15;15.25;;;;;;;8.09;100.00;101943.16;5037846;28;20455;-71
2022/04/14 01:46:43;;;;;;;27.48;15.77;;;;;;;8.08;100.00;101951.97;5036157;28;20490;-71
2022/04/14 01:49:09;;;;;;;28.65;15.60;;;;;;;8.06;100.00;101959.91;5021363;28;20040;-71
2022/04/14 01:51:35;;;;;;;32.13;16.42;;;;;;;8.05;100.00;101955.53;5036960;28;20045;-71
2022/04/14 01:54:00;;;;;;;26.05;15.23;;;;;;;8.04;100.00;101950.28;5036925;28;20086;-71
2022/04/14 01:56:26;;;;;;;28.98;15.85;;;;;;;8.04;100.00;101955.56;5036205;28;20033;-71
2022/04/14 01:58:55;;;;;;;26.50;15.23;;;;;;;8.00;100.00;101950.34;5054610;28;20094;-71
2022/04/14 02:01:21;;;;;;;28.13;15.27;;;;;;;7.98;100.00;101952.16;5054696;28;20577;-70
2022/04/14 02:03:47;;;;;;;28.95;15.68;;;;;;;7.96;100.00;101947.78;5054117;28;20037;-71
2022/04/14 02:06:13;;;;;;;31.45;16.02;;;;;;;7.94;100.00;101947.81;5037276;28;20024;-71
2022/04/14 02:08:38;;;;;;;27.73;15.13;;;;;;;7.93;100.00;101951.34;5053703;28;20044;-71
2022/04/14 02:11:04;;;;;;;30.17;15.73;;;;;;;7.91;100.00;101947.00;5034607;28;20387;-71
2022/04/14 02:13:30;;;;;;;29.60;16.60;;;;;;;7.89;100.00;101949.66;5036964;28;20028;-70
2022/04/14 02:15:56;;;;;;;28.90;16.33;;;;;;;7.87;100.00;101952.31;5036741;28;20024;-71
2022/04/14 02:18:21;;;;;;;31.05;16.10;;;;;;;7.86;100.00;101957.63;5054035;28;20036;-71
2022/04/14 02:20:47;;;;;;;29.38;15.30;;;;;;;7.83;100.00;101965.56;5035771;28;20127;-71
2022/04/14 02:23:12;;;;;;;28.27;15.82;;;;;;;7.81;100.00;101956.81;5054961;28;20044;-71
2022/04/14 02:25:38;;;;;;;29.88;16.15;;;;;;;7.78;100.00;101951.59;5036630;28;20025;-71
2022/04/14 02:28:04;;;;;;;29.33;15.75;;;;;;;7.74;100.00;101949.00;5036936;28;20043;-71
2022/04/14 02:30:30;;;;;;;28.17;15.55;;;;;;;7.71;100.00;101949.06;5054915;28;20032;-71
2022/04/14 02:32:56;;;;;;;28.67;15.98;;;;;;;7.68;100.00;101948.25;5052568;28;20047;-71
2022/04/14 02:35:21;;;;;;;29.67;15.48;;;;;;;7.63;100.00;101948.28;5054081;28;20426;-71
2022/04/14 02:37:47;;;;;;;31.25;16.08;;;;;;;7.59;100.00;101939.56;5036610;28;20032;-71
2022/04/14 02:40:13;;;;;;;30.65;15.40;;;;;;;7.57;100.00;101949.25;5053985;28;20415;-71
2022/04/14 02:42:40;;;;;;;29.38;15.88;;;;;;;7.56;100.00;101942.25;5051943;28;20445;-71
2022/04/14 02:45:06;;;;;;;30.92;16.52;;;;;;;7.55;100.00;101939.63;5054337;28;20459;-71
2022/04/14 02:47:31;;;;;;;29.67;15.98;;;;;;;7.54;100.00;101946.69;5019853;28;20140;-71
2022/04/14 02:49:57;;;;;;;29.88;16.38;;;;;;;7.55;100.00;101942.25;5036533;28;20027;-71
2022/04/14 02:52:22;;;;;;;33.53;17.25;;;;;;;7.55;100.00;101950.19;5035403;28;20036;-71
2022/04/14 02:54:48;;;;;;;33.38;17.20;;;;;;;7.54;100.00;101956.34;5027927;28;20028;-71
2022/04/14 02:57:13;;;;;;;31.02;16.50;;;;;;;7.54;100.00;101953.72;5034249;28;20552;-71
2022/04/14 02:59:39;;;;;;;32.47;17.00;;;;;;;7.51;100.00;101956.41;5054044;28;20032;-71
2022/04/14 03:02:05;;;;;;;33.30;17.63;;;;;;;7.47;100.00;101961.69;5027106;28;20048;-70
2022/04/14 03:04:30;;;;;;;32.22;16.55;;;;;;;7.48;100.00;101957.31;5036400;28;20037;-71
2022/04/14 03:06:57;;;;;;;33.72;17.35;;;;;;;7.46;100.00;101957.31;5035934;28;20123;-71
2022/04/14 03:09:23;;;;;;;34.50;16.75;;;;;;;7.46;100.00;101957.31;5019228;28;21034;-71
2022/04/14 03:11:49;;;;;;;35.03;16.80;;;;;;;7.47;100.00;101952.94;5010140;28;20782;-71
2022/04/14 03:14:15;;;;;;;33.03;17.63;;;;;;;7.45;100.00;101947.69;5034883;28;20036;-71
2022/04/14 03:16:40;;;;;;;34.17;16.67;;;;;;;7.44;100.00;101947.69;5019218;28;20494;-71
2022/04/14 03:19:06;;;;;;;36.20;17.88;;;;;;;7.42;100.00;101949.50;5033013;28;20071;-71
2022/04/14 03:21:31;;;;;;;32.50;17.05;;;;;;;7.40;100.00;101949.50;5035443;28;20044;-70
2022/04/14 03:23:57;;;;;;;35.67;17.00;;;;;;;7.41;100.00;101939.84;5053393;28;20024;-70
2022/04/14 03:26:22;;;;;;;32.75;17.30;;;;;;;7.38;100.00;101943.41;5053302;28;20024;-70
2022/04/14 03:28:48;;;;;;;33.00;17.48;;;;;;;7.34;100.00;101944.31;5035852;28;20086;-70
2022/04/14 03:31:13;;;;;;;30.48;17.42;;;;;;;7.31;100.00;101953.13;5018942;28;20487;-71
2022/04/14 03:33:39;;;;;;;34.08;17.42;;;;;;;7.32;100.00;101951.38;5034683;28;20040;-70
2022/04/14 03:36:05;;;;;;;33.05;17.95;;;;;;;7.31;100.00;101944.38;5053166;28;20040;-71
2022/04/14 03:38:31;;;;;;;37.55;17.92;;;;;;;7.29;100.00;101946.16;5020372;28;20518;-71
2022/04/14 03:40:57;;;;;;;29.95;17.40;;;;;;;7.27;100.00;101945.31;5053741;28;20024;-71
2022/04/14 03:43:22;;;;;;;30.30;17.23;;;;;;;7.26;100.00;101944.44;5034831;28;20028;-71
2022/04/14 03:45:48;;;;;;;31.25;17.15;;;;;;;7.26;100.00;101944.44;5051050;28;20047;-71
2022/04/14 03:48:13;;;;;;;31.63;17.02;;;;;;;7.29;100.00;101941.75;5035752;28;20499;-71
2022/04/14 03:50:39;;;;;;;31.92;17.63;;;;;;;7.30;100.00;101945.28;5036019;28;20045;-71
2022/04/14 03:53:05;;;;;;;32.35;17.02;;;;;;;7.31;100.00;101941.75;5058398;28;20036;-71
2022/04/14 03:55:30;;;;;;;33.60;18.08;;;;;;;7.33;100.00;101942.59;5056903;28;20063;-71
2022/04/14 03:57:56;;;;;;;32.67;17.75;;;;;;;7.33;100.00;101943.47;5039457;28;20094;-71
2022/04/14 04:00:22;;;;;;;34.53;18.60;;;;;;;7.33;100.00;101947.84;5039549;28;20486;-71
2022/04/14 04:02:47;;;;;;;38.33;18.50;;;;;;;7.31;100.00;101944.38;5056426;28;20457;-71
2022/04/14 04:05:12;;;;;;;36.53;16.92;;;;;;;7.32;100.00;101943.50;5057739;28;20461;-71
2022/04/14 04:07:38;;;;;;;34.88;18.42;;;;;;;7.31;100.00;101949.66;5038765;28;20040;-71
2022/04/14 04:10:05;;;;;;;37.85;16.98;;;;;;;7.29;100.00;101944.41;5039095;28;20036;-71
2022/04/14 04:12:31;;;;;;;36.22;18.50;;;;;;;7.28;100.00;101949.69;5056662;28;20032;-71
2022/04/14 04:14:56;;;;;;;38.75;18.38;;;;;;;7.27;100.00;101958.47;5039520;28;20483;-71
2022/04/14 04:17:22;;;;;;;38.13;18.25;;;;;;;7.24;100.00;101954.13;5038674;28;20025;-71
2022/04/14 04:19:47;;;;;;;37.70;19.48;;;;;;;7.22;100.00;101953.28;5047685;28;20037;-71
2022/04/14 04:22:13;;;;;;;38.00;18.60;;;;;;;7.19;100.00;101946.28;5038515;28;20552;-70
2022/04/14 04:24:38;;;;;;;36.42;18.08;;;;;;;7.17;100.00;101941.94;5055780;28;20137;-70
2022/04/14 04:27:05;;;;;;;39.95;18.92;;;;;;;7.13;100.00;101946.38;5053019;28;20387;-71
2022/04/14 04:29:30;;;;;;;37.17;19.02;;;;;;;7.10;100.00;101943.78;5038253;28;20479;-70
2022/04/14 04:31:56;;;;;;;37.92;19.17;;;;;;;7.09;100.00;101952.59;5057276;28;20432;-71
2022/04/14 04:34:21;;;;;;;41.17;19.23;;;;;;;7.09;100.00;101965.75;5021100;28;20036;-71
2022/04/14 04:36:47;;;;;;;40.30;19.55;;;;;;;7.07;100.00;101955.22;5057155;28;20078;-71
2022/04/14 04:39:12;;;;;;;39.92;19.52;;;;;;;7.04;100.00;101965.78;5038309;28;20036;-71
2022/04/14 04:41:38;;;;;;;44.00;20.08;;;;;;;7.03;100.00;101965.81;5037498;28;21351;-71
2022/04/14 04:44:04;;;;;;;39.53;20.10;;;;;;;7.02;100.00;101969.31;5056834;28;20036;-71
2022/04/14 04:46:31;;;;;;;39.70;20.10;;;;;;;7.02;100.00;101974.59;5057215;28;20056;-71
2022/04/14 04:48:57;;;;;;;44.78;20.63;;;;;;;7.02;100.00;101991.28;5020584;28;20522;-71
2022/04/14 04:51:22;;;;;;;43.40;20.67;;;;;;;7.02;100.00;101995.66;5021447;28;20029;-71
2022/04/14 04:53:48;;;;;;;44.47;21.35;;;;;;;7.01;100.00;102000.06;5037326;28;20483;-71
2022/04/14 04:56:13;;;;;;;42.10;20.45;;;;;;;7.02;100.00;102000.91;5045203;28;20099;-70
2022/04/14 04:58:39;;;;;;;42.33;19.10;;;;;;;7.03;100.00;102007.97;5036922;28;20233;-71
2022/04/14 05:01:05;;;;;;;43.38;20.05;;;;;;;7.04;100.00;102009.69;5037278;28;20028;-71
2022/04/14 05:03:30;;;;;;;46.15;21.38;;;;;;;7.03;100.00;102003.53;5053830;28;20216;-71
2022/04/14 05:05:56;;;;;;;39.70;19.75;;;;;;;7.04;100.00;101999.16;5056721;28;20486;-71
2022/04/14 05:08:21;;;;;;;45.22;20.55;;;;;;;7.03;100.00;101998.28;5037951;28;20138;-71
2022/04/14 05:10:47;;;;;;;44.60;20.92;;;;;;;7.06;100.00;102002.63;5055465;28;20129;-70
2022/04/14 05:13:14;;;;;;;43.78;20.15;;;;;;;7.06;100.00;102000.00;5038288;28;20036;-71
2022/04/14 05:15:40;;;;;;;44.55;21.17;;;;;;;7.10;100.00;102009.63;5020102;28;20066;-71
2022/04/14 05:18:05;;;;;;;39.33;20.42;;;;;;;7.14;100.00;102006.03;5037182;28;20119;-71
2022/04/14 05:20:31;;;;;;;46.20;21.58;;;;;;;7.17;100.00;102010.41;5056851;28;20478;-71
2022/04/14 05:22:57;;;;;;;44.55;20.40;;;;;;;7.22;100.00;102018.25;5021962;28;21677;-71
2022/04/14 05:25:23;;;;;;;43.90;21.40;;;;;;;7.24;100.00;102014.69;5038243;28;20036;-71
2022/04/14 05:27:48;;;;;;;43.60;21.55;;;;;;;7.30;100.00;102005.88;5022134;28;20094;-71
2022/04/14 05:30:14;;;;;;;43.60;20.83;;;;;;;7.36;100.00;102003.16;5054971;28;20039;-70
2022/04/14 05:32:40;;;;;;;42.47;20.83;;;;;;;7.41;100.00;101997.81;5056079;28;20059;-71
2022/04/14 05:35:09;;;;;;;42.67;20.92;;;;;;;7.48;100.00;102002.13;5020962;28;20036;-71
2022/04/14 05:37:35;;;;;;;48.00;21.80;;;;;;;7.55;100.00;102014.31;5038765;28;20059;-70
2022/04/14 05:40:03;;;;;;;43.45;20.45;;;;;;;7.63;100.00;102008.91;5015719;28;20135;-71
2022/04/14 05:42:29;;;;;;;38.00;19.95;;;;;;;7.72;100.00;102014.06;5021961;28;20486;-70
2022/04/14 05:44:54;;;;;;;42.33;19.80;;;;;;;7.81;100.00;102012.19;5055622;28;20115;-71
2022/04/14 05:47:23;;;;;;;42.97;20.90;;;;;;;7.89;100.00;102020.84;5052712;28;20564;-72
2022/04/14 05:49:50;;;;;;;39.85;20.67;;;;;;;7.97;100.00;102016.34;5035261;28;20037;-71
2022/04/14 05:52:16;;;;;;;41.28;19.42;;;;;;;8.04;100.00;102022.38;5035711;28;20398;-71
2022/04/14 05:54:41;;;;;;;43.63;19.83;;;;;;;8.06;100.00;102023.22;5055532;28;20032;-71
2022/04/14 05:57:07;;;;;;;41.08;20.35;;;;;;;8.09;100.00;102025.81;5054748;28;20084;-75
2022/04/14 05:59:32;;;;;;;34.47;19.17;;;;;;;8.12;100.00;102031.03;5037343;28;20031;-74
2022/04/14 06:01:58;;;;;;;33.97;18.52;;;;;;;8.12;100.00;102035.44;5028346;28;20029;-75
2022/04/14 06:04:23;;;;;;;34.42;18.30;;;;;;;8.13;100.00;102029.28;5051055;28;20032;-75
2022/04/14 06:06:48;;;;;;;32.13;17.83;;;;;;;8.12;100.00;102040.72;5020985;28;20103;-75
2022/04/14 06:09:14;;;;;;;33.15;18.42;;;;;;;8.11;100.00;102045.13;5036997;28;20024;-74
2022/04/14 06:11:39;;;;;;;32.72;17.27;;;;;;;8.14;100.00;102041.56;5036883;28;20365;-74
2022/04/14 06:14:05;;;;;;;33.08;18.08;;;;;;;8.19;100.00;102038.84;5025770;28;20040;-75
2022/04/14 06:16:31;;;;;;;34.28;18.23;;;;;;;8.26;100.00;102036.09;5054002;28;20033;-74
2022/04/14 06:18:57;;;;;;;35.72;17.70;;;;;;;8.34;100.00;102041.22;5035783;28;20032;-74
2022/04/14 06:21:22;;;;;;;34.05;17.50;;;;;;;8.43;100.00;102037.56;5016871;28;20629;-74
2022/04/14 06:23:49;;;;;;;36.70;18.33;;;;;;;8.53;100.00;102026.00;5053109;28;20035;-73
2022/04/14 06:26:15;;;;;;;32.38;16.23;;;;;;;8.66;100.00;102036.34;5053985;28;20024;-70
2022/04/14 06:28:42;;;;;;;35.47;17.23;;;;;;;8.78;100.00;102037.88;5036965;28;20410;-71
2022/04/14 06:31:08;;;;;;;33.67;17.00;;;;;;;8.94;100.00;102028.75;5054160;28;20184;-70
2022/04/14 06:33:33;;;;;;;34.53;16.70;;;;;;;9.15;100.00;102039.78;5053812;28;20387;-71
2022/04/14 06:35:59;;;;;;;33.55;17.73;;;;;;;9.34;100.00;102042.94;5054544;28;20175;-71
2022/04/14 06:38:27;;;;;;;27.60;15.27;;;;;;;9.51;100.00;102034.63;5036379;28;20041;-76
2022/04/14 06:40:53;;;;;;;30.83;16.73;;;;;;;9.68;100.00;102040.44;5036195;28;20017;-73
2022/04/14 06:43:18;;;;;;;28.58;15.60;;;;;;;9.85;100.00;102047.97;5036166;28;20031;-71
2022/04/14 06:45:44;;;;;;;28.33;14.88;;;;;;;10.01;100.00;102037.91;5051271;28;20112;-70
2022/04/14 06:48:10;;;;;;;26.08;14.50;;;;;;;10.18;100.00;102038.38;5036020;28;20079;-71
2022/04/14 06:50:35;;;;;;;28.83;15.23;;;;;;;10.37;100.00;102047.63;5053616;28;20032;-71
2022/04/14 06:53:01;;;;;;;26.75;14.02;;;;;;;10.55;100.00;102036.59;5053826;28;20123;-73
2022/04/14 06:55:27;;;;;;;24.52;13.65;;;;;;;10.72;100.00;102041.44;5053943;28;20036;-71
2022/04/14 06:57:53;;;;;;;24.52;13.63;;;;;;;10.83;100.00;102041.16;5036817;28;20028;-74
2022/04/14 07:00:21;;;;;;;22.10;12.82;;;;;;;10.97;100.00;102038.13;5035686;28;20037;-71
2022/04/14 07:02:51;;;;;;;22.17;12.85;;;;;;;11.09;100.00;102038.69;5035261;28;20586;-72
2022/04/14 07:05:17;;;;;;;21.02;11.68;;;;;;;11.22;100.00;102040.06;5035708;28;20773;-71
2022/04/14 07:07:43;;;;;;;19.75;11.40;;;;;;;11.33;100.00;102037.09;5053579;28;20153;-72
2022/04/14 07:10:10;;;;;;;23.35;12.40;;;;;;;11.39;100.00;102031.63;5035729;28;20036;-73
2022/04/14 07:12:36;;;;;;;22.90;12.00;;;;;;;11.52;100.00;102036.56;5035751;28;20065;-71
2022/04/14 07:15:02;;;;;;;23.15;11.80;;;;;;;11.64;100.00;102040.59;5019739;28;20045;-71
2022/04/14 07:17:27;;;;;;;23.38;11.63;;;;;;;11.73;100.00;102040.34;5050263;28;20052;-73
2022/04/14 07:19:53;;;;;;;25.10;11.60;;;;;;;11.81;100.00;102043.63;5026912;28;20087;-73
2022/04/14 07:22:19;;;;;;;18.80;10.70;;;;;;;11.87;100.00;102037.22;5035035;28;20403;-73
2022/04/14 07:24:50;;;;;;;23.70;11.00;;;;;;;11.91;100.00;102043.31;5035675;28;20261;-71
2022/04/14 07:27:18;;;;;;;20.13;10.30;;;;;;;11.97;100.00;102042.25;5043276;28;20131;-74
2022/04/14 07:29:46;;;;;;;17.95;10.35;;;;;;;12.01;100.00;102039.47;5035060;28;20032;-73
2022/04/14 07:32:15;;;;;;;17.17;10.35;;;;;;;12.03;100.00;102032.34;5044614;28;20713;-75
2022/04/14 07:34:40;;;;;;;19.58;10.00;;;;;;;12.06;100.00;102042.00;5034845;28;20655;-80
2022/04/14 07:37:06;;;;;;;17.80;10.07;;;;;;;12.11;100.00;102040.06;5019967;28;20041;-81
2022/04/14 07:39:32;;;;;;;17.98;10.05;;;;;;;12.15;100.00;102039.03;5034210;28;20410;-77
2022/04/14 07:41:57;;;;;;;17.85;10.40;;;;;;;12.19;100.00;102045.09;5019569;28;20529;-76
2022/04/14 07:44:22;;;;;;;15.93;9.20;;;;;;;12.20;100.00;102055.66;5035429;28;20386;-77
2022/04/14 07:46:48;;;;;;;15.80;9.40;;;;;;;12.26;100.00;102057.25;5027324;28;20044;-76
2022/04/14 07:49:13;;;;;;;16.98;9.90;;;;;;;12.31;100.00;102063.28;5035813;28;20037;-76
2022/04/14 07:51:40;;;;;;;14.88;9.50;;;;;;;12.38;100.00;102057.75;5035567;28;20584;-76
2022/04/14 07:54:06;;;;;;;19.30;10.15;;;;;;;12.46;100.00;102055.72;5035671;28;20040;-76
2022/04/14 07:56:33;;;;;;;16.15;9.68;;;;;;;12.53;100.00;102057.22;5019387;28;20016;-77
2022/04/14 07:58:59;;;;;;;18.67;10.02;;;;;;;12.59;100.00;102051.72;5019469;28;21513;-78
2022/04/14 08:01:25;;;;;;;15.13;9.60;;;;;;;12.68;100.00;102055.84;5036136;28;20115;-76
2022/04/14 08:03:51;;;;;;;16.73;9.52;;;;;;;12.78;100.00;102056.38;5013448;28;20123;-76
2022/04/14 08:06:17;;;;;;;14.80;9.10;;;;;;;12.92;100.00;102052.38;5031847;28;20048;-77
2022/04/14 08:08:43;;;;;;;14.00;8.50;;;;;;;13.06;100.00;102063.34;5034006;28;20098;-76
2022/04/14 08:11:10;;;;;;;12.25;8.35;;;;;;;13.17;100.00;102061.19;5031456;28;20057;-76
2022/04/14 08:13:38;;;;;;;15.07;8.50;;;;;;;13.30;100.00;102055.41;5034989;28;20040;-76
2022/04/14 08:16:06;;;;;;;11.00;7.65;;;;;;;13.42;100.00;102056.72;5012262;28;20047;-76
2022/04/14 08:18:36;;;;;;;16.98;8.35;;;;;;;13.55;100.00;102060.69;5052895;28;20349;-76
2022/04/14 08:21:02;;;;;;;11.10;7.53;;;;;;;13.69;100.00;102056.63;5018248;28;20040;-77
2022/04/14 08:23:28;;;;;;;10.00;7.75;;;;;;;13.82;100.00;102055.22;5032672;28;20032;-76
2022/04/14 08:25:53;;;;;;;11.48;7.45;;;;;;;13.96;99.80;102054.63;5033500;28;20105;-77
2022/04/14 08:28:19;;;;;;;12.25;7.72;;;;;;;14.11;99.75;102057.63;5033126;28;20035;-76
2022/04/14 08:30:44;;;;;;;11.25;7.68;;;;;;;14.24;98.44;102064.19;5052848;28;20039;-77
2022/04/14 08:33:12;;;;;;;12.73;8.15;;;;;;;14.35;98.33;102053.06;5031796;28;20428;-76
2022/04/14 08:35:37;;;;;;;12.43;8.15;;;;;;;14.45;96.72;102056.22;5031337;28;20245;-79
2022/04/14 08:38:08;;;;;;;11.95;7.78;;;;;;;14.61;95.93;102061.72;5050545;28;20048;-76
2022/04/14 08:40:38;;;;;;;11.18;7.72;;;;;;;14.76;96.38;102057.56;5046472;28;20032;-76
2022/04/14 08:43:06;;;;;;;13.13;7.82;;;;;;;14.87;93.82;102064.25;5038817;28;20093;-76
2022/04/14 08:45:34;;;;;;;10.57;6.95;;;;;;;15.04;95.37;102053.66;5056315;28;20040;-75
2022/04/14 08:48:01;;;;;;;8.65;6.25;;;;;;;15.22;94.91;102061.78;5035962;28;20284;-77
2022/04/14 08:50:27;;;;;;;7.20;5.38;;;;;;;15.33;93.28;102054.16;5037371;28;20399;-76
2022/04/14 08:52:53;;;;;;;9.82;6.43;;;;;;;15.32;92.55;102060.41;5037981;28;20150;-78
2022/04/14 08:55:19;;;;;;;10.48;7.00;;;;;;;15.40;92.72;102052.06;5038841;28;20135;-77
2022/04/14 08:57:45;;;;;;;11.10;6.75;;;;;;;15.54;93.44;102059.41;5037272;28;20054;-77
2022/04/14 09:00:13;;;;;;;9.55;6.13;;;;;;;15.59;91.60;102049.38;5022168;28;20027;-76
2022/04/14 09:02:39;;;;;;;9.25;5.97;;;;;;;15.68;89.64;102055.22;5038195;28;20039;-78
2022/04/14 09:05:06;;;;;;;11.48;5.80;;;;;;;15.78;90.25;102050.28;5037225;28;20613;-76
2022/04/14 09:07:33;;;;;;;7.38;5.32;;;;;;;15.89;89.16;102070.22;5056417;28;20037;-78
2022/04/14 09:09:58;;;;;;;9.30;5.60;;;;;;;15.92;89.49;102066.56;5038388;28;20041;-76
2022/04/14 09:12:24;;;;;;;8.15;5.18;;;;;;;15.94;89.02;102067.34;5020301;28;20032;-77
2022/04/14 09:14:50;;;;;;;7.65;5.05;;;;;;;15.99;83.84;102069.78;5037138;28;20475;-77
2022/04/14 09:17:15;;;;;;;7.30;5.28;;;;;;;15.99;85.42;102069.78;5050553;28;20048;-76
2022/04/14 09:19:41;;;;;;;7.63;5.45;;;;;;;16.05;86.92;102072.16;5055213;28;20115;-78
2022/04/14 09:22:10;;;;;;;7.70;5.60;;;;;;;16.12;85.93;102072.72;5056632;28;20122;-77
2022/04/14 09:24:40;;;;;;;8.85;5.18;;;;;;;16.17;85.09;102072.50;5037156;28;20510;-77
2022/04/14 09:27:07;;;;;;;7.45;5.05;;;;;;;16.20;85.99;102072.31;5038251;28;20833;-77
2022/04/14 09:29:33;;;;;;;8.60;4.65;;;;;;;16.22;85.08;102065.97;5054829;28;20383;-77
2022/04/14 09:31:58;;;;;;;6.78;4.88;;;;;;;16.22;84.29;102070.44;5037276;28;20110;-76
2022/04/14 09:34:50;;;;;;;9.18;5.05;;;;;;;16.14;81.22;102066.34;5054440;28;20078;-76
2022/04/14 09:37:17;;;;;;;6.55;4.75;;;;;;;16.15;83.20;102084.13;5055081;28;20119;-80
2022/04/14 09:40:02;;;;;;;6.38;4.72;;;;;;;16.11;78.77;102081.66;5027626;28;20044;-77
2022/04/14 09:42:30;;;;;;;5.03;3.30;;;;;;;16.12;83.33;102086.09;5037718;28;20024;-76
2022/04/14 09:45:19;;;;;;;5.10;3.80;;;;;;;16.11;78.29;102090.53;5053713;28;20055;-78
2022/04/14 09:47:45;;;;;;;5.32;3.75;;;;;;;16.10;81.02;102083.47;5036433;28;20533;-76
2022/04/14 09:50:27;;;;;;;5.22;2.83;;;;;;;16.19;80.55;102076.81;5055076;28;20032;-77
2022/04/14 09:52:57;;;;;;;4.72;3.20;;;;;;;16.32;81.88;102087.75;5037295;28;20033;-76
2022/04/14 09:55:22;;;;;;;3.63;2.90;;;;;;;16.38;82.52;102087.44;5037503;28;20487;-77
2022/04/14 09:58:13;;;;;;;3.65;2.88;;;;;;;16.46;79.58;102088.88;5020158;28;20028;-75
2022/04/14 10:00:50;;;;;;;6.13;2.63;;;;;;;16.48;79.82;102094.97;5037153;28;20522;-75
2022/04/14 10:03:19;;;;;;;5.00;2.70;;;;;;;16.35;79.28;102098.28;5054714;28;20083;-74
2022/04/14 10:05:46;;;;;;;3.75;2.38;;;;;;;16.25;79.75;102107.69;5037060;28;20044;-77
2022/04/14 10:08:13;;;;;;;3.50;2.45;;;;;;;16.21;79.08;102108.78;5054486;28;20039;-74
2022/04/14 10:10:43;;;;;;;4.63;2.97;;;;;;;16.07;78.59;102099.66;5021345;28;20040;-75
2022/04/14 10:13:11;;;;;;;7.22;3.15;;;;;;;16.03;77.48;102108.75;5020505;28;20646;-76
2022/04/14 10:15:42;;;;;;;3.58;2.40;;;;;;;15.94;76.71;102102.06;5020095;28;21565;-77
2022/04/14 10:18:13;;;;;;;5.82;2.53;;;;;;;15.85;77.14;102100.66;5003485;28;20060;-77
2022/04/14 10:20:40;;;;;;;2.72;1.92;;;;;;;15.79;76.38;102103.63;5020435;28;20128;-76
2022/04/14 10:23:08;;;;;;;3.95;2.20;;;;;;;15.75;77.99;102099.38;5035447;28;20032;-75
2022/04/14 10:25:36;;;;;;;4.05;2.67;;;;;;;15.78;78.52;102101.88;5054338;28;20479;-72
2022/04/14 10:28:03;;;;;;;4.65;3.25;;;;;;;15.72;77.67;102105.72;5054881;28;20485;-75
2022/04/14 10:30:29;;;;;;;6.65;3.70;;;;;;;15.63;78.02;102107.97;5035834;28;20028;-71
2022/04/14 10:32:55;;;;;;;7.78;3.20;;;;;;;15.63;78.56;102111.47;5054266;28;20349;-69
2022/04/14 10:35:31;;;;;;;7.05;3.67;;;;;;;15.58;78.24;102109.03;5027687;28;20598;-74
2022/04/14 10:37:57;;;;;;;3.65;2.90;;;;;;;15.56;78.00;102105.56;5036791;28;20034;-71
2022/04/14 10:40:23;;;;;;;4.25;3.20;;;;;;;15.44;77.77;102106.13;5054342;28;20036;-71
2022/04/14 10:42:53;;;;;;;5.25;2.90;;;;;;;15.36;77.42;102105.63;5037235;28;20032;-70
2022/04/14 10:45:22;;;;;;;6.00;3.20;;;;;;;15.31;78.56;102117.38;5053412;28;20740;-72
2022/04/14 10:47:50;;;;;;;5.18;3.25;;;;;;;15.29;78.94;102113.91;5055355;28;20044;-72
2022/04/14 10:50:20;;;;;;;3.90;2.95;;;;;;;15.28;79.00;102117.53;5054089;28;20032;-72
2022/04/14 10:53:12;;;;;;;4.43;3.50;;;;;;;15.29;78.56;102115.69;5036000;28;20066;-72
2022/04/14 10:55:45;;;;;;;6.05;3.13;;;;;;;15.33;77.97;102115.53;5054120;28;20096;-72
2022/04/14 10:58:36;;;;;;;4.57;2.83;;;;;;;15.38;76.25;102127.75;5054876;28;20032;-72
2022/04/14 11:01:03;;;;;;;4.63;3.28;;;;;;;15.32;78.11;102118.25;5035586;28;20913;-72
2022/04/14 11:03:48;;;;;;;4.75;3.10;;;;;;;15.35;78.38;102118.09;5027331;28;20556;-71
2022/04/14 11:06:39;;;;;;;6.30;4.43;;;;;;;15.45;77.89;102115.88;5053143;28;20098;-72
2022/04/14 11:09:06;;;;;;;6.60;3.63;;;;;;;15.47;78.75;102117.53;5054939;28;20039;-72
2022/04/14 11:11:57;;;;;;;7.95;3.22;;;;;;;15.53;77.55;102119.03;5053797;28;20105;-72